Accueil
METAR-TAF:

METAR-TAF

Aéroports :

Benson, Angleterre

latitude: 51-37N, longitude: 001-05W, altitude: 63 m

Observation

Le bulletin a été fait il y a 49 minutes, à 22:50 UTC
Vent 1 kt de nord/nord-est
Température 14°C
Humidité 77%
Pression 1026 hPa
Visibilité 10 km ou plus

METAR: EGUB 232250Z AUTO 02001KT 9999 // FEW210/// 14/10 Q1026

Heure: 00:39 (23:39 UTC)

Prévision

Le bulletin a été fait il y a 10 heures et 3 minutes, à 13:36 UTC
Prévision valable du 23 à 15 UTC au 23 à 18 UTC
Vent 7 kt de nord/nord-ouest
Visibilité 10 km ou plus
pas de nuages en-dessous de 1500 mètres et pas de cumulonimbus.

TAF: EGUB 231336Z 2315/2318 34007KT CAVOK

Observations et prévisions météorologiques de plus de 4000 aéroports (messages METAR et TAF).

Les stations disponibles sont représentées par des disques jaunes et rouges sur la carte.

Passer la souris dessus pour voir le nom de la station.

Cliquer dessus pour voir les observations et prévisions météorologiques.

Pour changer de carte: cliquez sur les boutons verts avec une croix noire pour zoomer, sur le bouton vert avec un tiret pour effectuer un zoom arrière, ou sur les flèches vertes pour les cartes adjacentes.


METAR-TAF: